createdAt,value
2018-12-27T00:00:58.928Z,1026.21
2018-12-27T00:01:58.980Z,1026.16
2018-12-27T00:02:59.036Z,1026.17
2018-12-27T00:03:59.092Z,1026.15
2018-12-27T00:04:59.484Z,1026.17
2018-12-27T00:05:59.207Z,1026.17
2018-12-27T00:06:59.268Z,1026.19
2018-12-27T00:07:59.333Z,1026.19
2018-12-27T00:08:59.384Z,1026.17
2018-12-27T00:09:59.439Z,1026.16
2018-12-27T00:10:59.536Z,1026.13
2018-12-27T00:11:59.560Z,1026.12
2018-12-27T00:12:59.616Z,1026.15
2018-12-27T00:13:59.672Z,1026.12
2018-12-27T00:14:59.732Z,1026.06
2018-12-27T16:01:56.366Z,1022.37
2018-12-27T16:02:56.206Z,1022.38
2018-12-27T16:03:56.258Z,1022.38
2018-12-27T16:04:56.312Z,1022.38
2018-12-27T16:05:56.363Z,1022.34
2018-12-27T16:07:01.734Z,1022.38
2018-12-27T16:07:56.487Z,1022.40
2018-12-27T16:08:56.522Z,1022.41
2018-12-27T16:09:56.578Z,1022.41
2018-12-27T16:10:56.634Z,1022.43
2018-12-27T16:11:56.698Z,1022.48
2018-12-27T16:12:56.754Z,1022.46
2018-12-27T16:13:56.809Z,1022.43
2018-12-27T16:14:56.868Z,1022.43
2018-12-27T16:15:56.920Z,1022.47
2018-12-27T16:16:56.983Z,1022.44
2018-12-27T16:17:57.043Z,1022.43
2018-12-27T16:18:57.091Z,1022.49
2018-12-27T16:19:57.142Z,1022.48
2018-12-27T16:20:57.203Z,1022.49
2018-12-27T16:21:57.263Z,1022.54
2018-12-27T16:22:57.436Z,1022.52
2018-12-27T16:23:57.379Z,1022.55
2018-12-27T16:24:57.435Z,1022.52
2018-12-27T16:25:57.495Z,1022.56
2018-12-27T16:26:57.551Z,1022.55
2018-12-27T16:27:57.619Z,1022.53
2018-12-27T16:28:57.675Z,1022.50
2018-12-27T16:29:57.727Z,1022.47
2018-12-27T16:30:57.788Z,1022.49
2018-12-27T16:31:57.844Z,1022.49
2018-12-27T16:32:57.911Z,1022.47
2018-12-27T16:33:57.968Z,1022.48
2018-12-27T16:34:58.020Z,1022.46
2018-12-27T16:35:58.081Z,1022.42
2018-12-27T16:36:58.137Z,1022.45
2018-12-27T16:37:58.201Z,1022.43
2018-12-27T16:38:58.352Z,1022.42
2018-12-27T16:39:58.312Z,1022.45
2018-12-27T16:40:58.372Z,1022.40
2018-12-27T16:41:59.288Z,1022.45
2018-12-27T16:42:58.492Z,1022.44
2018-12-27T16:43:58.557Z,1022.44
2018-12-27T16:44:58.616Z,1022.45
2018-12-27T16:45:58.665Z,1022.46
2018-12-27T16:46:58.726Z,1022.48
2018-12-27T16:47:58.789Z,1022.50
2018-12-27T16:48:58.857Z,1022.47
2018-12-27T16:49:58.912Z,1022.49
2018-12-27T16:50:58.961Z,1022.54
2018-12-27T16:51:59.021Z,1022.51
2018-12-27T16:52:59.082Z,1022.57
2018-12-27T16:53:59.145Z,1022.57
2018-12-27T16:54:59.397Z,1022.52
2018-12-27T16:55:59.263Z,1022.51
2018-12-27T16:56:59.317Z,1022.52
2018-12-27T16:57:59.373Z,1022.49
2018-12-27T16:58:59.440Z,1022.49
2018-12-27T16:59:59.501Z,1022.49
2018-12-27T17:00:59.561Z,1022.52
2018-12-27T17:01:59.611Z,1022.56
2018-12-27T17:02:59.671Z,1022.53
2018-12-27T17:03:59.730Z,1022.56
2018-12-27T17:04:59.798Z,1022.55
2018-12-27T17:05:59.857Z,1022.53
2018-12-27T17:06:59.906Z,1022.57
2018-12-27T17:07:59.966Z,1022.54
2018-12-27T17:09:00.030Z,1022.59
2018-12-27T17:10:00.290Z,1022.62
2018-12-27T17:11:00.143Z,1022.63
2018-12-27T17:12:00.206Z,1022.64
2018-12-27T17:13:00.266Z,1022.66
2018-12-27T17:14:00.322Z,1022.63
2018-12-27T17:15:00.386Z,1022.58
2018-12-27T17:16:01.255Z,1022.59
2018-12-27T17:17:00.499Z,1022.57
2018-12-27T17:18:00.559Z,1022.51
2018-12-27T17:19:00.619Z,1022.50
2018-12-27T17:20:00.674Z,1022.52
2018-12-27T17:21:00.822Z,1022.49
2018-12-27T17:22:00.797Z,1022.52
2018-12-27T17:23:00.855Z,1022.50
2018-12-27T17:24:00.911Z,1022.48
2018-12-27T17:25:00.971Z,1022.48
2018-12-27T17:26:01.038Z,1022.45
2018-12-27T17:27:01.102Z,1022.41
2018-12-27T17:28:01.152Z,1022.43
2018-12-27T17:29:01.207Z,1022.40
2018-12-27T17:30:01.268Z,1022.40
2018-12-27T17:31:01.335Z,1022.35
2018-12-27T17:32:01.408Z,1022.35
2018-12-27T17:33:01.448Z,1022.36
2018-12-27T17:34:01.504Z,1022.38
2018-12-27T17:35:01.569Z,1022.40
2018-12-27T17:36:01.632Z,1022.43
2018-12-27T17:37:01.688Z,1022.40
2018-12-27T17:38:01.756Z,1022.42
2018-12-27T17:39:01.800Z,1022.40
2018-12-27T17:40:01.861Z,1022.41
2018-12-27T17:41:01.927Z,1022.46
2018-12-27T17:42:01.988Z,1022.52
2018-12-27T17:43:02.040Z,1022.56
2018-12-27T17:44:02.101Z,1022.52
2018-12-27T17:45:02.156Z,1022.51
2018-12-27T17:46:02.469Z,1022.56
2018-12-27T17:47:02.273Z,1022.57
2018-12-27T17:48:02.337Z,1022.61
2018-12-27T17:49:02.458Z,1022.61
2018-12-27T17:50:02.481Z,1022.63
2018-12-27T17:51:02.522Z,1022.60
2018-12-27T17:52:02.580Z,1022.62
2018-12-27T17:53:02.629Z,1022.60
2018-12-27T17:54:02.692Z,1022.64
2018-12-27T17:55:02.749Z,1022.61
2018-12-27T17:56:02.813Z,1022.64
2018-12-27T17:57:02.873Z,1022.65
2018-12-27T17:58:02.925Z,1022.67
2018-12-27T17:59:02.984Z,1022.66
2018-12-27T18:00:03.045Z,1022.61
2018-12-27T18:01:03.150Z,1022.59
2018-12-27T18:02:03.165Z,1022.56
2018-12-27T18:03:03.221Z,1022.54
2018-12-27T18:04:03.285Z,1022.53
2018-12-27T18:05:03.337Z,1022.52
2018-12-27T18:06:03.410Z,1022.52
2018-12-27T18:07:03.465Z,1022.48
2018-12-27T18:08:03.519Z,1022.47
2018-12-27T18:09:03.577Z,1022.50
2018-12-27T18:10:03.633Z,1022.52
2018-12-27T18:11:03.710Z,1022.54
2018-12-27T18:12:03.761Z,1022.51
2018-12-27T18:13:03.813Z,1022.53
2018-12-27T18:14:03.873Z,1022.52
2018-12-27T18:15:03.929Z,1022.50
2018-12-27T18:16:03.998Z,1022.50
2018-12-27T18:17:04.057Z,1022.50
2018-12-27T18:18:04.109Z,1022.47
2018-12-27T18:19:04.165Z,1022.53
2018-12-27T18:20:04.230Z,1022.59
2018-12-27T18:21:04.289Z,1022.58
2018-12-27T18:22:04.589Z,1022.58
2018-12-27T18:23:04.408Z,1022.55
2018-12-27T18:24:04.462Z,1022.60
2018-12-27T18:25:04.522Z,1022.61
2018-12-27T18:26:04.582Z,1022.65
2018-12-27T18:27:04.648Z,1022.65
2018-12-27T18:28:04.706Z,1022.60
2018-12-27T18:29:04.758Z,1022.61
2018-12-27T18:30:04.818Z,1022.62
2018-12-27T18:31:04.878Z,1022.59
2018-12-27T18:32:04.942Z,1022.59
2018-12-27T18:33:05.011Z,1022.60
2018-12-27T18:34:05.055Z,1022.60
2018-12-27T18:35:05.110Z,1022.58
2018-12-27T18:36:05.170Z,1022.60
2018-12-27T18:37:05.297Z,1022.51
2018-12-27T18:38:05.407Z,1022.51
2018-12-27T18:39:05.346Z,1022.54
2018-12-27T18:40:05.408Z,1022.53
2018-12-27T18:41:05.467Z,1022.52
2018-12-27T18:42:05.527Z,1022.55
2018-12-27T18:43:05.591Z,1022.50
2018-12-27T18:44:05.651Z,1022.54
2018-12-27T18:45:05.704Z,1022.54
2018-12-27T18:46:05.763Z,1022.54
2018-12-27T18:47:05.819Z,1022.58
2018-12-27T18:48:05.887Z,1022.60
2018-12-27T18:49:05.950Z,1022.64
2018-12-27T18:50:05.995Z,1022.62
2018-12-27T18:51:06.055Z,1022.63
2018-12-27T18:52:06.115Z,1022.66
2018-12-27T18:53:06.279Z,1022.63
2018-12-27T18:54:06.231Z,1022.63
2018-12-27T18:55:06.291Z,1022.63
2018-12-27T18:56:06.351Z,1022.67
2018-12-27T18:57:06.408Z,1022.66
2018-12-27T18:58:06.475Z,1022.67
2018-12-27T18:59:06.536Z,1022.66
2018-12-27T19:00:06.588Z,1022.67
2018-12-27T19:01:06.648Z,1022.71
2018-12-27T19:02:06.704Z,1022.71
2018-12-27T19:03:06.776Z,1022.71
2018-12-27T19:04:06.828Z,1022.73
2018-12-27T19:05:06.880Z,1022.74
2018-12-27T19:06:06.942Z,1022.73
2018-12-27T19:07:07.002Z,1022.73
2018-12-27T19:08:07.064Z,1022.78
2018-12-27T19:09:07.124Z,1022.77
2018-12-27T19:10:07.180Z,1022.76
2018-12-27T19:11:07.232Z,1022.78
2018-12-27T19:12:07.292Z,1022.81
2018-12-27T19:13:07.365Z,1022.79
2018-12-27T19:14:07.416Z,1022.75
2018-12-27T19:15:07.472Z,1022.82
2018-12-27T19:16:07.528Z,1022.80
2018-12-27T19:17:07.589Z,1022.81
2018-12-27T19:18:07.652Z,1022.81
2018-12-27T19:19:07.712Z,1022.79
2018-12-27T19:20:07.765Z,1022.74
2018-12-27T19:21:07.824Z,1022.73
2018-12-27T19:22:07.881Z,1022.72
2018-12-27T19:23:07.949Z,1022.72
2018-12-27T19:24:08.009Z,1022.74
2018-12-27T19:25:08.057Z,1022.69
2018-12-27T19:26:08.117Z,1022.69
2018-12-27T19:27:08.177Z,1022.70
2018-12-27T19:28:08.333Z,1022.71
2018-12-27T19:29:08.293Z,1022.70
2018-12-27T19:30:08.353Z,1022.72
2018-12-27T19:31:08.420Z,1022.68
2018-12-27T19:32:08.473Z,1022.69
2018-12-27T19:33:08.537Z,1022.67
2018-12-27T19:34:08.598Z,1022.68
2018-12-27T19:35:08.649Z,1022.70
2018-12-27T19:36:08.705Z,1022.72
2018-12-27T19:37:10.882Z,1022.74
2018-12-27T19:38:08.833Z,1022.73
2018-12-27T19:39:08.895Z,1022.71
2018-12-27T19:40:08.942Z,1022.72
2018-12-27T19:41:09.002Z,1022.69
2018-12-27T19:42:09.062Z,1022.70
2018-12-27T19:43:09.234Z,1022.66
2018-12-27T19:44:09.179Z,1022.67
2018-12-27T19:45:09.237Z,1022.63
2018-12-27T19:46:09.297Z,1022.65
2018-12-27T19:47:09.353Z,1022.62
2018-12-27T19:48:09.426Z,1022.63
2018-12-27T19:49:09.490Z,1022.62
2018-12-27T19:50:09.534Z,1022.65
2018-12-27T19:51:09.682Z,1022.61
2018-12-27T19:52:09.664Z,1022.63
2018-12-27T19:53:09.718Z,1022.61
2018-12-27T19:54:09.774Z,1022.58
2018-12-27T19:55:10.732Z,1022.60
2018-12-27T19:56:09.888Z,1022.52
2018-12-27T19:57:09.946Z,1022.54
2018-12-27T19:58:10.018Z,1022.51
2018-12-27T19:59:10.075Z,1022.52
2018-12-27T20:00:10.123Z,1022.49
2018-12-27T20:01:10.182Z,1022.54
2018-12-27T20:02:10.243Z,1022.55
2018-12-27T20:03:10.356Z,1022.57
2018-12-27T20:04:10.365Z,1022.61
2018-12-27T20:05:10.420Z,1022.62
2018-12-27T20:06:10.479Z,1022.61
2018-12-27T20:07:10.537Z,1022.61
2018-12-27T20:08:10.608Z,1022.64
2018-12-27T20:09:10.663Z,1022.61
2018-12-27T20:10:10.715Z,1022.63
2018-12-27T20:11:10.771Z,1022.63
2018-12-27T20:12:10.831Z,1022.63
2018-12-27T20:13:10.905Z,1022.60
2018-12-27T20:14:10.956Z,1022.60
2018-12-27T20:15:11.008Z,1022.66
2018-12-27T20:16:11.068Z,1022.66
2018-12-27T20:17:11.128Z,1022.69
2018-12-27T20:18:11.459Z,1022.72
2018-12-27T20:19:11.248Z,1022.70
2018-12-27T20:20:11.304Z,1022.76
2018-12-27T20:21:11.364Z,1022.74
2018-12-27T20:22:11.424Z,1022.75
2018-12-27T20:23:11.543Z,1022.81
2018-12-27T20:24:11.548Z,1022.86
2018-12-27T20:25:11.601Z,1022.84
2018-12-27T20:26:11.660Z,1022.80
2018-12-27T20:27:11.716Z,1022.80
2018-12-27T20:28:11.784Z,1022.80
2018-12-27T20:29:11.848Z,1022.83
2018-12-27T20:30:11.896Z,1022.83
2018-12-27T20:31:11.965Z,1022.84
2018-12-27T20:32:12.012Z,1022.76
2018-12-27T20:33:12.192Z,1022.75
2018-12-27T20:34:12.132Z,1022.74
2018-12-27T20:35:12.192Z,1022.75
2018-12-27T20:36:12.253Z,1022.80
2018-12-27T20:37:12.310Z,1022.78
2018-12-27T20:38:12.377Z,1022.76
2018-12-27T20:39:12.438Z,1022.77
2018-12-27T20:40:12.489Z,1022.71
2018-12-27T20:41:12.545Z,1022.68
2018-12-27T20:42:12.605Z,1022.69
2018-12-27T20:43:12.673Z,1022.66
2018-12-27T20:44:12.733Z,1022.68
2018-12-27T20:45:12.785Z,1022.68
2018-12-27T20:46:12.841Z,1022.60
2018-12-27T20:47:12.900Z,1022.59
2018-12-27T20:48:12.969Z,1022.54
2018-12-27T20:49:13.029Z,1022.48
2018-12-27T20:50:13.083Z,1022.48
2018-12-27T20:51:13.137Z,1022.45
2018-12-27T20:52:13.197Z,1022.49
2018-12-27T20:53:13.385Z,1022.48
2018-12-27T20:54:13.317Z,1022.46
2018-12-27T20:55:13.377Z,1022.43
2018-12-27T20:56:13.433Z,1022.49
2018-12-27T20:57:13.493Z,1022.46
2018-12-27T20:58:13.567Z,1022.48
2018-12-27T20:59:13.626Z,1022.47
2018-12-27T21:00:13.674Z,1022.50
2018-12-27T21:01:13.730Z,1022.53
2018-12-27T21:02:13.791Z,1022.52
2018-12-27T21:03:13.858Z,1022.48
2018-12-27T21:04:13.918Z,1022.56
2018-12-27T21:05:13.966Z,1022.57
2018-12-27T21:06:14.026Z,1022.57
2018-12-27T21:07:14.086Z,1022.61
2018-12-27T21:08:14.400Z,1022.62
2018-12-27T21:09:14.212Z,1022.59
2018-12-27T21:10:14.262Z,1022.60
2018-12-27T21:11:14.325Z,1022.59
2018-12-27T21:12:14.383Z,1022.61
2018-12-27T21:13:14.687Z,1022.58
2018-12-27T21:14:14.547Z,1022.59
2018-12-27T21:15:14.558Z,1022.60
2018-12-27T21:16:14.618Z,1022.65
2018-12-27T21:17:14.678Z,1022.65
2018-12-27T21:18:14.734Z,1022.73
2018-12-27T21:19:14.802Z,1022.74
2018-12-27T21:20:14.863Z,1022.81
2018-12-27T21:21:14.915Z,1022.79
2018-12-27T21:22:14.975Z,1022.83
2018-12-27T21:23:15.032Z,1022.80
2018-12-27T21:24:15.134Z,1022.77
2018-12-27T21:25:15.150Z,1022.78
2018-12-27T21:26:15.208Z,1022.76
2018-12-27T21:27:15.271Z,1022.73
2018-12-27T21:28:15.327Z,1022.70
2018-12-27T21:29:15.395Z,1022.61
2018-12-27T21:30:15.451Z,1022.58
2018-12-27T21:31:15.503Z,1022.59
2018-12-27T21:32:15.563Z,1022.54
2018-12-27T21:33:15.624Z,1022.58
2018-12-27T21:34:15.687Z,1022.56
2018-12-27T21:35:15.751Z,1022.59
2018-12-27T21:36:15.799Z,1022.56
2018-12-27T21:37:15.860Z,1022.63
2018-12-27T21:38:21.278Z,1022.63
2018-12-27T21:39:15.995Z,1022.62
2018-12-27T21:40:16.048Z,1022.58
2018-12-27T21:41:16.099Z,1022.60
2018-12-27T21:42:16.158Z,1022.63
2018-12-27T21:43:16.212Z,1022.61
2018-12-27T21:44:16.275Z,1022.61
2018-12-27T21:45:16.357Z,1022.57
2018-12-27T21:46:16.388Z,1022.58
2018-12-27T21:47:16.448Z,1022.62
2018-12-27T21:48:16.508Z,1022.64
2018-12-27T21:49:16.568Z,1022.64
2018-12-27T21:50:16.632Z,1022.64
2018-12-27T21:51:16.692Z,1022.68
2018-12-27T21:52:16.748Z,1022.68
2018-12-27T21:53:16.801Z,1022.69
2018-12-27T21:54:16.867Z,1022.69
2018-12-27T21:55:16.929Z,1022.74
2018-12-27T21:56:16.989Z,1022.78
2018-12-27T21:57:17.037Z,1022.77
2018-12-27T21:58:17.098Z,1022.78
2018-12-27T21:59:17.159Z,1022.75
2018-12-27T22:00:17.325Z,1022.75
2018-12-27T22:01:17.273Z,1022.72
2018-12-27T22:02:17.333Z,1022.66
2018-12-27T22:03:17.393Z,1022.65
2018-12-27T22:04:17.453Z,1022.62
2018-12-27T22:05:17.521Z,1022.61
2018-12-27T22:06:17.578Z,1022.64
2018-12-27T22:07:17.629Z,1022.60
2018-12-27T22:08:17.689Z,1022.66
2018-12-27T22:09:17.746Z,1022.64
2018-12-27T22:10:17.814Z,1022.63
2018-12-27T22:11:17.876Z,1022.63
2018-12-27T22:12:17.926Z,1022.59
2018-12-27T22:13:17.982Z,1022.58
2018-12-27T22:14:18.042Z,1022.55
2018-12-27T22:15:18.346Z,1022.50
2018-12-27T22:16:18.163Z,1022.56
2018-12-27T22:17:18.222Z,1022.55
2018-12-27T22:18:18.278Z,1022.55
2018-12-27T22:19:18.337Z,1022.59
2018-12-27T22:20:18.402Z,1022.57
2018-12-27T22:21:18.476Z,1022.58
2018-12-27T22:22:18.514Z,1022.58
2018-12-27T22:23:18.574Z,1022.54
2018-12-27T22:24:18.634Z,1022.57
2018-12-27T22:25:18.698Z,1022.54
2018-12-27T22:26:18.762Z,1022.54
2018-12-27T22:27:18.812Z,1022.50
2018-12-27T22:28:18.870Z,1022.49
2018-12-27T22:29:18.926Z,1022.50
2018-12-27T22:30:18.994Z,1022.52
2018-12-27T22:31:19.050Z,1022.53
2018-12-27T22:32:19.105Z,1022.53
2018-12-27T22:33:19.163Z,1022.50
2018-12-27T22:34:19.222Z,1022.52
2018-12-27T22:35:19.282Z,1022.46
2018-12-27T22:36:19.371Z,1022.46
2018-12-27T22:37:19.400Z,1022.46
2018-12-27T22:38:19.459Z,1022.43
2018-12-27T22:39:19.519Z,1022.48
2018-12-27T22:40:19.576Z,1022.49
2018-12-27T22:41:19.647Z,1022.55
2018-12-27T22:42:19.699Z,1022.55
2018-12-27T22:43:19.755Z,1022.57
2018-12-27T22:44:19.811Z,1022.59
2018-12-27T22:45:19.879Z,1022.64
2018-12-27T22:46:19.944Z,1022.70
2018-12-27T22:47:19.998Z,1022.76
2018-12-27T22:48:20.047Z,1022.78
2018-12-27T22:49:20.107Z,1022.78
2018-12-27T22:50:20.169Z,1022.85
2018-12-27T22:51:20.467Z,1022.86
2018-12-27T22:52:20.288Z,1022.87
2018-12-27T22:53:20.356Z,1022.90
2018-12-27T22:54:20.411Z,1022.94
2018-12-27T22:55:20.467Z,1022.97
2018-12-27T22:56:20.528Z,1022.98
2018-12-27T22:57:20.584Z,1022.95
2018-12-27T22:58:20.640Z,1023.00
2018-12-27T22:59:20.708Z,1022.99
2018-12-27T23:00:20.760Z,1022.97
2018-12-27T23:01:20.823Z,1022.93
2018-12-27T23:02:20.884Z,1022.91
2018-12-27T23:03:20.932Z,1022.95
2018-12-27T23:04:20.992Z,1022.90
2018-12-27T23:05:21.052Z,1022.91
2018-12-27T23:06:21.248Z,1022.84
2018-12-27T23:07:21.173Z,1022.83
2018-12-27T23:08:21.228Z,1022.83
2018-12-27T23:09:21.288Z,1022.82
2018-12-27T23:10:21.349Z,1022.84
2018-12-27T23:11:21.412Z,1022.87
2018-12-27T23:12:21.472Z,1022.87
2018-12-27T23:13:21.600Z,1022.85
2018-12-27T23:14:21.581Z,1022.83
2018-12-27T23:15:21.640Z,1022.78
2018-12-27T23:16:21.709Z,1022.81
2018-12-27T23:17:21.765Z,1022.78
2018-12-27T23:18:21.817Z,1022.81
2018-12-27T23:19:21.877Z,1022.78
2018-12-27T23:20:21.936Z,1022.75
2018-12-27T23:21:22.001Z,1022.76
2018-12-27T23:22:22.061Z,1022.83
2018-12-27T23:23:22.114Z,1022.84
2018-12-27T23:24:22.173Z,1022.89
2018-12-27T23:25:22.232Z,1022.88
2018-12-27T23:26:22.289Z,1022.90
2018-12-27T23:27:22.389Z,1022.84
2018-12-27T23:28:22.409Z,1022.86
2018-12-27T23:29:22.465Z,1022.86
2018-12-27T23:30:22.526Z,1022.82
2018-12-27T23:31:22.585Z,1022.81
2018-12-27T23:32:22.649Z,1022.80
2018-12-27T23:33:22.710Z,1022.80
2018-12-27T23:34:22.762Z,1022.81
2018-12-27T23:35:22.818Z,1022.85
2018-12-27T23:36:22.877Z,1022.81
2018-12-27T23:37:22.946Z,1022.78
2018-12-27T23:38:23.007Z,1022.75
2018-12-27T23:39:23.058Z,1022.76
2018-12-27T23:40:23.113Z,1022.70
2018-12-27T23:41:23.170Z,1022.73
2018-12-27T23:42:23.246Z,1022.70
2018-12-27T23:43:23.290Z,1022.71
2018-12-27T23:44:23.350Z,1022.66
2018-12-27T23:45:23.406Z,1022.68
2018-12-27T23:46:23.466Z,1022.65
2018-12-27T23:47:23.534Z,1022.66
2018-12-27T23:48:23.590Z,1022.67
2018-12-27T23:49:23.642Z,1022.68
2018-12-27T23:50:23.702Z,1022.74
2018-12-27T23:51:23.758Z,1022.75
2018-12-27T23:52:23.826Z,1022.84
2018-12-27T23:53:23.893Z,1022.87
2018-12-27T23:54:23.934Z,1022.87
2018-12-27T23:55:23.994Z,1022.93
2018-12-27T23:56:24.054Z,1022.92
2018-12-27T23:57:24.198Z,1022.91
2018-12-27T23:58:24.171Z,1022.88
2018-12-27T23:59:24.231Z,1022.90
